Airfield :
LOGIN :

Register | Disclaimer

   EN    FR    IT 

 










Legend :    VFR   Marginal VFR   IFR   Intensive IFR   Very Intensive IFR
Visi :
Ceiling :
>= 8 km
>= 3000ft
5 to 8 km
1000 to 3000 ft
1500m to 5 km
500 to 1000 ft
800 to 1500m
200 to 500 ft
< 800m
< 200 ft
Symbols :   Thunderstorms  Fog  Heavy snow  Heavy precipitations  Wind > 20 kt
SIGMETs :     Misc.  Thunderstorms  Icing  Turbulence  Mountain Waves  Volcanic Ashes







- Airport Elevation : 863 ft
- IATA code : ZAZ


LEZG - Zaragoza Aragon

CURRENT METAR :
  • 221230Z 32010KT 280V350 CAVOK 27/10 Q1021

EXPIRED METARs :
  • 221200Z 31011KT 280V340 CAVOK 26/09 Q1021
  • 221130Z 31011KT 260V350 CAVOK 26/10 Q1022
  • 221100Z 31011KT 260V330 CAVOK 25/11 Q1022
  • 221030Z 31012KT 280V350 CAVOK 24/11 Q1022

TAF TAF LEZG
Valid from the 22 at 12:00 until the 23 at 12:00 UTC


221100Z 2212/2312 30009KT 9999 FEW040 TX31/2214Z TN16/2305Z
No reported NOTAMs for that airfield.



MET'MAP, your aeronautical weather chart ! - Copyright ORBIFLY December 2007 - Disclaimer

ORBIFLY MET'MAP TEAM :

Programming & Development : Alexandra Zaïnal
Concept & Development : Baudouin d'Aumeries
Co-Development & Prog : Marc-Olivier Méhu
Technical & hardware support : Manuel Goepfert

Contact : metmap@orbifly.com




SOURCES & CREDITS :

   NOAA